Last 30 Days

Las Positas

Hourly Data | America/Los_Angeles
as of 6/25/24 1:06 AM PDT
Date & Time Temp (°F) WindChill (°F) RH (%) Dew Pt (°F) Wet Bulb (°F) Wind Dir (°) Wind Spd (mph) Wind Gust (mph) Wind Gst Dir (°) Latest Rain (In) BatVolt (V) Daily Rain (In) Daily Min Temp (°F) Daily Max Temp (°F) Daily Max Wind (mph)
6/25/24 - 0100 70.1 - 20 27.3 49.1 WSW | 246 0.9 3.5 SW | 232 0.00 13.5 0.00 59.2 94.8 18.4
6/25/24 - 0000 72.0 - 19 27.0 49.7 SW | 222 1.2 4.2 WNW | 282 0.00 13.5 0.00 59.2 94.8 18.4
6/24/24 - 2300 73.4 - 22 32.4 51.6 WSW | 248 1.8 12.7 W | 271 0.00 13.4 0.00 59.2 94.8 18.4
6/24/24 - 2200 75.5 - 28 40.1 55.0 WSW | 258 4.1 10.5 WNW | 284 0.00 13.4 0.00 59.2 94.8 18.4
6/24/24 - 2100 80.6 - 23 39.6 56.2 W | 279 4.9 14.5 WNW | 291 0.00 13.3 0.00 59.2 94.8 18.4
6/24/24 - 2000 85.8 - 18 36.8 56.4 WNW | 283 7.5 15.6 WNW | 286 0.00 13.4 0.00 59.2 94.8 18.4
6/24/24 - 1900 89.0 - 23 45.9 60.4 W | 281 5.6 14.9 WSW | 249 0.00 13.3 0.00 59.2 94.8 18.4
6/24/24 - 1800 89.8 - 20 43.9 59.7 WSW | 254 6.4 13.4 W | 278 0.00 13.2 0.00 59.2 94.8 18.4
6/24/24 - 1700 90.8 - 18 40.8 58.8 SW | 221 7.7 18.4 SSW | 213 0.00 13.2 0.00 59.2 94.8 18.4
6/24/24 - 1600 92.3 - 17 41.9 59.4 WNW | 282 8.6 18.0 WNW | 300 0.00 13.2 0.00 59.2 94.8 18.0
6/24/24 - 1500 93.3 - 16 39.8 58.8 W | 274 6.9 17.1 NW | 305 0.00 13.2 0.00 59.2 94.8 17.3
6/24/24 - 1400 91.6 - 16 39.4 58.4 W | 278 7.1 17.3 WNW | 291 0.00 13.3 0.00 59.2 92.9 17.3
6/24/24 - 1300 90.0 - 18 41.5 58.9 W | 263 5.2 13.8 WNW | 288 0.00 13.4 0.00 59.2 91.3 13.8
6/24/24 - 1200 87.0 - 26 47.3 60.7 SW | 228 5.2 12.3 WNW | 288 0.00 13.4 0.00 59.2 89.2 12.3
6/24/24 - 1100 81.9 - 35 51.4 61.8 SSW | 211 5.6 10.7 SSW | 198 0.00 13.3 0.00 59.2 84.4 10.7
6/24/24 - 1000 75.9 - 43 51.5 60.6 SSW | 208 4.7 9.9 S | 191 0.00 13.3 0.00 59.2 79.1 9.9
6/24/24 - 0900 70.2 - 52 51.6 59.2 SSW | 210 3.7 6.8 SW | 224 0.00 13.4 0.00 59.2 73.3 9.2
6/24/24 - 0800 65.9 - 58 50.8 57.4 SSW | 207 1.9 6.6 SSW | 192 0.00 13.6 0.00 59.2 68.2 9.2
6/24/24 - 0700 60.6 - 67 49.8 55.1 W | 275 0.8 3.7 WNW | 297 0.00 13.7 0.00 59.2 67.7 9.2
6/24/24 - 0600 60.3 - 68 49.6 54.8 W | 278 1.7 5.9 W | 269 0.00 13.7 0.00 59.3 67.7 9.2
6/24/24 - 0500 60.2 - 66 48.9 54.4 WNW | 296 1.8 4.6 WNW | 296 0.00 13.6 0.00 59.6 67.7 9.2
6/24/24 - 0400 61.7 - 62 48.4 54.7 W | 261 0.9 3.3 W | 278 0.00 13.6 0.00 60.6 67.7 9.2
6/24/24 - 0300 64.1 - 57 48.8 55.7 NNW | 328 0.9 3.9 WNW | 284 0.00 13.7 0.00 62.6 67.7 9.2
6/24/24 - 0200 66.6 - 53 48.8 56.5 W | 266 2.9 9.2 WNW | 289 0.00 13.6 0.00 65.6 67.7 9.2
6/24/24 - 0100 67.2 - 52 48.8 56.7 WNW | 283 3.1 10.3 WNW | 293 0.00 13.5 0.00 59.9 94.8 22.4
6/24/24 - 0000 68.3 - 50 48.9 57.1 W | 277 2.5 10.3 WNW | 289 0.00 13.5 0.00 59.9 94.8 22.4
6/23/24 - 2300 71.3 - 44 48.4 57.7 W | 268 4.5 12.7 WNW | 285 0.00 13.6 0.00 59.9 94.8 22.4
6/23/24 - 2200 73.4 - 41 48.0 58.1 W | 275 7.4 16.9 WNW | 287 0.00 13.5 0.00 59.9 94.8 22.4
6/23/24 - 2100 77.8 - 34 47.5 58.9 WSW | 258 4.8 12.5 NW | 317 0.00 13.4 0.00 59.9 94.8 22.4
6/23/24 - 2000 83.9 - 29 47.9 60.4 W | 278 6.5 15.1 W | 271 0.00 13.4 0.00 59.9 94.8 22.4
6/23/24 - 1900 88.5 - 23 45.6 60.2 W | 278 7.9 16.9 W | 276 0.00 13.2 0.00 59.9 94.8 22.4
6/23/24 - 1800 90.1 - 17 40.1 58.4 W | 275 9.9 21.3 WSW | 254 0.00 13.2 0.00 59.9 94.8 22.4
6/23/24 - 1700 91.8 - 21 46.4 61.0 WNW | 282 10.0 22.4 W | 281 0.00 13.2 0.00 59.9 94.8 22.4
6/23/24 - 1600 92.8 - 21 47.6 61.7 W | 280 9.2 20.0 WNW | 294 0.00 13.2 0.00 59.9 94.8 20.2
6/23/24 - 1500 93.8 - 21 47.4 61.8 W | 276 7.8 17.1 W | 271 0.00 13.2 0.00 59.9 94.8 20.2
6/23/24 - 1400 93.9 - 16 40.7 59.2 SW | 226 7.6 15.8 SW | 224 0.00 13.4 0.00 59.9 94.8 20.2
6/23/24 - 1300 92.2 - 15 38.6 58.2 SW | 224 9.5 20.2 SW | 224 0.00 13.4 0.00 59.9 93.1 20.2
6/23/24 - 1200 88.9 - 23 45.9 60.4 SSW | 213 5.9 14.9 SW | 226 0.00 13.2 0.00 59.9 91.5 14.9
6/23/24 - 1100 82.9 - 29 47.3 59.9 SW | 218 3.5 10.3 S | 190 0.00 13.3 0.00 59.9 85.3 10.3
6/23/24 - 1000 77.5 - 37 48.8 59.5 SSW | 210 3.3 7.9 S | 180 0.00 13.3 0.00 59.9 79.8 7.9
6/23/24 - 0900 71.7 - 47 50.5 58.9 SSW | 203 3.2 7.2 SSW | 195 0.00 13.5 0.00 59.9 74.4 7.2
6/23/24 - 0800 68.2 - 53 50.3 57.8 SSW | 209 1.3 5.3 SSW | 201 0.00 13.5 0.00 59.9 70.2 5.3
6/23/24 - 0700 62.0 - 63 49.2 55.2 NE | 44 1.1 3.7 NE | 44 0.00 13.6 0.00 59.9 69.4 3.9
6/23/24 - 0600 60.8 - 64 48.5 54.4 NE | 48 1.2 3.5 NE | 55 0.00 13.6 0.00 59.9 69.4 3.9
6/23/24 - 0500 61.9 - 61 48.4 54.8 NE | 46 0.8 3.5 ENE | 60 0.00 13.7 0.00 61.4 69.4 3.9
6/23/24 - 0400 63.6 - 58 48.7 55.5 NE | 56 1.1 3.9 NE | 39 0.00 13.6 0.00 62.8 69.4 3.9
6/23/24 - 0300 66.1 - 52 48.2 56.0 N | 356 0.2 2.2 NE | 43 0.00 13.5 0.00 64.6 69.4 2.6
6/23/24 - 0200 68.4 - 45 46.2 55.7 WNW | 289 0.8 2.6 W | 280 0.00 13.6 0.00 67.8 69.4 2.6
6/23/24 - 0100 71.1 - 39 44.6 55.7 WNW | 287 1.3 3.9 WNW | 287 0.00 13.6 0.00 54.8 98.6 18.0
6/23/24 - 0000 73.6 - 34 43.6 55.9 WNW | 285 1.5 5.3 SW | 217 0.00 13.5 0.00 54.8 98.6 18.0
6/22/24 - 2300 75.2 - 31 42.6 56.0 WNW | 283 2.0 4.8 WNW | 290 0.00 13.4 0.00 54.8 98.6 18.0
6/22/24 - 2200 78.5 - 28 42.5 56.8 SSW | 213 2.0 6.4 SW | 228 0.00 13.4 0.00 54.8 98.6 18.0
6/22/24 - 2100 82.7 - 26 43.8 58.3 W | 269 3.3 11.2 WNW | 289 0.00 13.4 0.00 54.8 98.6 18.0
6/22/24 - 2000 89.0 - 19 40.8 58.4 W | 280 7.4 16.4 W | 276 0.00 13.3 0.00 54.8 98.6 18.0
6/22/24 - 1900 91.9 - 18 42.3 59.5 WSW | 256 7.5 16.2 W | 264 0.00 13.4 0.00 54.8 98.6 18.0
6/22/24 - 1800 94.3 - 17 42.2 59.8 WSW | 258 8.4 18.0 WSW | 247 0.00 13.3 0.00 54.8 98.6 18.0
6/22/24 - 1700 96.7 - 16 43.3 60.6 W | 262 8.0 16.4 WNW | 285 0.00 13.1 0.00 54.8 98.6 16.9
6/22/24 - 1600 97.4 - 16 43.1 60.6 W | 262 7.7 16.9 SW | 236 0.00 13.2 0.00 54.8 98.6 16.9
6/22/24 - 1500 97.6 - 20 50.0 63.3 WSW | 237 6.0 15.1 SW | 229 0.00 13.2 0.00 54.8 98.6 15.1
6/22/24 - 1400 96.4 - 19 47.4 62.1 SSW | 213 4.0 11.6 S | 185 0.00 13.3 0.00 54.8 97.6 11.6
6/22/24 - 1300 93.0 - 20 45.8 61.0 SSW | 205 2.9 8.8 SW | 222 0.00 13.2 0.00 54.8 95.6 8.8
6/22/24 - 1200 86.8 - 28 50.2 62.0 SSW | 210 3.9 7.9 WSW | 240 0.00 13.2 0.00 54.8 90.4 7.9
6/22/24 - 1100 79.5 - 36 49.9 60.5 SSW | 206 4.2 7.9 S | 187 0.00 13.4 0.00 54.8 82.9 7.9
6/22/24 - 1000 72.3 - 48 51.2 59.5 SSW | 203 3.1 6.1 SSW | 206 0.00 13.4 0.00 54.8 76.6 6.1
6/22/24 - 0900 67.6 - 56 51.5 58.4 SSW | 210 1.5 5.5 SSW | 192 0.00 13.4 0.00 54.8 68.9 5.5
6/22/24 - 0800 62.5 - 65 50.7 56.3 S | 178 0.4 2.6 S | 177 0.00 13.6 0.00 54.8 65.3 5.5
6/22/24 - 0700 56.7 - 77 49.4 53.4 N | 5 0.0 0.9 NNE | 31 0.00 13.6 0.00 54.8 61.6 5.5
6/22/24 - 0600 55.1 - 79 48.7 52.3 NE | 50 0.4 3.3 NE | 47 0.00 13.8 0.00 54.8 61.6 5.5
6/22/24 - 0500 56.1 - 76 48.9 52.8 NE | 42 0.3 1.8 NE | 46 0.00 13.7 0.00 55.7 61.6 5.5
6/22/24 - 0400 57.2 - 74 48.9 53.3 NNE | 33 0.6 2.0 NE | 37 0.00 13.7 0.00 56.7 61.6 5.5
6/22/24 - 0300 58.1 - 73 49.4 53.9 W | 281 1.2 3.5 WSW | 246 0.00 13.6 0.00 57.3 61.6 5.5
6/22/24 - 0200 60.2 - 68 49.4 54.7 SW | 231 1.7 5.5 S | 190 0.00 13.6 0.00 58.6 61.6 5.5
6/22/24 - 0100 62.7 - 63 49.9 55.9 W | 264 1.7 4.2 WNW | 287 0.00 13.6 0.00 51.0 86.8 16.2
6/22/24 - 0000 65.0 - 57 49.4 56.4 W | 264 1.0 4.2 WNW | 283 0.00 13.5 0.00 51.0 86.8 16.2
6/21/24 - 2300 66.9 - 52 48.9 56.7 W | 263 1.7 8.3 NW | 326 0.00 13.6 0.00 51.0 86.8 16.2
6/21/24 - 2200 68.3 - 48 48.1 56.7 NW | 309 4.0 9.4 NW | 326 0.00 13.5 0.00 51.0 86.8 16.2
6/21/24 - 2100 72.4 - 41 47.4 57.5 WNW | 296 2.7 11.0 WNW | 292 0.00 13.6 0.00 51.0 86.8 16.2
6/21/24 - 2000 78.4 - 31 45.3 58.0 W | 281 6.2 15.3 W | 281 0.00 13.4 0.00 51.0 86.8 16.2
6/21/24 - 1900 81.4 - 30 47.2 59.6 W | 262 7.6 16.2 WSW | 237 0.00 13.4 0.00 51.0 86.8 16.2
6/21/24 - 1800 83.6 - 30 48.8 60.7 WSW | 258 7.2 14.9 WSW | 256 0.00 13.3 0.00 51.0 86.8 16.2
6/21/24 - 1700 84.9 - 29 49.5 61.3 W | 266 7.8 16.2 W | 260 0.00 13.5 0.00 51.0 86.8 16.2
6/21/24 - 1600 85.9 - 29 49.8 61.7 W | 263 7.2 14.2 WSW | 257 0.00 13.3 0.00 51.0 86.8 14.2
6/21/24 - 1500 84.4 - 32 51.4 62.2 WSW | 241 6.2 12.9 WSW | 247 0.00 13.3 0.00 51.0 85.7 12.9
6/21/24 - 1400 82.2 - 35 51.7 62.0 WSW | 238 5.6 11.6 S | 180 0.00 13.3 0.00 51.0 83.8 12.9
6/21/24 - 1300 77.9 - 38 50.6 60.5 SW | 216 5.0 10.3 SSW | 196 0.00 13.5 0.00 51.0 80.6 12.9
6/21/24 - 1200 73.0 - 45 50.5 59.3 SSW | 212 3.9 10.7 S | 179 0.00 13.5 0.00 51.0 75.5 12.9
6/21/24 - 1100 66.9 - 53 49.4 56.9 SSW | 203 4.6 10.5 S | 189 0.00 13.5 0.00 51.0 69.8 12.9
6/21/24 - 1000 62.3 - 61 48.8 55.1 SSW | 211 3.2 8.3 S | 182 0.00 13.6 0.00 51.0 64.5 12.9
6/21/24 - 0900 58.0 - 71 48.7 53.4 SW | 234 2.6 7.5 SSW | 205 0.00 13.6 0.00 51.0 59.6 12.9
6/21/24 - 0800 54.4 - 80 48.4 51.9 WSW | 254 2.3 6.6 SW | 227 0.00 13.8 0.00 51.0 56.1 12.9
6/21/24 - 0700 52.3 - 86 48.1 50.8 W | 264 2.0 6.6 W | 278 0.00 13.8 0.00 51.0 52.8 12.9
6/21/24 - 0600 51.9 - 87 48.1 50.5 W | 261 4.0 9.9 W | 268 0.00 13.7 0.00 51.0 52.2 12.9
6/21/24 - 0500 52.0 - 86 48.2 50.7 W | 264 4.5 9.4 WNW | 289 0.00 13.7 0.00 51.0 52.2 12.9
6/21/24 - 0400 51.6 - 89 48.4 50.6 W | 275 4.9 11.2 WNW | 287 0.00 13.9 0.00 51.0 51.9 12.9
6/21/24 - 0300 51.2 - 89 48.2 50.3 W | 272 5.7 12.9 WNW | 289 0.00 13.8 0.00 51.0 51.5 12.9
6/21/24 - 0200 51.2 - 89 48.1 50.2 W | 271 5.5 12.3 W | 276 0.00 13.7 0.00 51.1 51.3 12.3
6/21/24 - 0100 51.5 - 89 48.3 50.5 W | 272 6.6 15.6 WNW | 289 0.00 13.6 0.00 49.9 77.5 20.4
6/21/24 - 0000 51.9 - 86 47.8 50.4 W | 278 6.1 17.1 W | 271 0.00 13.8 0.00 49.9 77.5 20.4
6/20/24 - 2300 52.4 - 83 47.6 50.5 WNW | 299 5.4 14.5 W | 272 0.00 13.8 0.00 49.9 77.5 20.4
6/20/24 - 2200 54.1 - 79 47.7 51.3 WNW | 294 6.1 15.6 W | 280 0.00 13.7 0.00 49.9 77.5 20.4
6/20/24 - 2100 58.0 - 67 47.1 52.5 WNW | 286 6.7 15.8 NW | 322 0.00 13.8 0.00 49.9 77.5 20.4
6/20/24 - 2000 64.3 - 52 46.0 54.3 W | 281 7.2 16.9 W | 268 0.00 13.6 0.00 49.9 77.5 20.4
6/20/24 - 1900 68.1 - 44 45.2 55.1 W | 274 8.4 18.6 WNW | 282 0.00 13.5 0.00 49.9 77.5 20.4
6/20/24 - 1800 72.7 - 38 45.6 56.6 W | 276 8.9 20.4 W | 276 0.00 13.4 0.00 49.9 77.5 20.4
6/20/24 - 1700 76.4 - 32 44.0 56.9 W | 268 7.5 15.3 WSW | 255 0.00 13.3 0.00 49.9 77.5 16.9
6/20/24 - 1600 76.0 - 31 43.1 56.4 W | 268 8.0 16.9 WSW | 251 0.00 13.5 0.00 49.9 77.1 16.9
6/20/24 - 1500 74.7 - 35 45.2 57.0 W | 266 7.2 16.0 WNW | 297 0.00 13.4 0.00 49.9 75.6 16.0
6/20/24 - 1400 73.0 - 40 47.2 57.5 WSW | 257 6.5 14.0 WSW | 247 0.00 13.4 0.00 49.9 75.2 14.7
6/20/24 - 1300 70.2 - 43 46.7 56.5 WSW | 249 5.7 12.9 W | 259 0.00 13.4 0.00 49.9 72.1 14.7
6/20/24 - 1200 66.8 - 51 48.0 56.2 W | 259 4.8 12.5 SW | 223 0.00 13.6 0.00 49.9 69.3 14.7
6/20/24 - 1100 63.5 - 56 47.5 54.8 SW | 234 4.4 10.7 WSW | 247 0.00 13.5 0.00 49.9 65.1 14.7
6/20/24 - 1000 59.0 - 65 47.3 53.0 SW | 232 4.2 9.6 SW | 224 0.00 13.5 0.00 49.9 61.6 14.7
6/20/24 - 0900 55.0 - 74 47.0 51.3 SW | 220 3.8 11.0 SW | 222 0.00 13.6 0.00 49.9 57.0 14.7
6/20/24 - 0800 52.6 - 81 47.0 50.2 WSW | 244 4.8 11.2 WSW | 252 0.00 13.6 0.00 49.9 53.2 14.7
6/20/24 - 0700 51.9 - 84 47.1 50.0 SW | 231 4.9 11.6 WSW | 251 0.00 13.7 0.00 49.9 52.3 14.7
6/20/24 - 0600 50.9 - 86 46.9 49.4 WSW | 250 6.2 14.7 SW | 222 0.00 13.7 0.00 49.9 52.0 14.7
6/20/24 - 0500 50.2 - 89 47.0 49.2 W | 273 5.1 13.4 W | 262 0.00 13.9 0.00 49.9 52.0 13.4
6/20/24 - 0400 50.2 - 88 46.7 49.0 WNW | 282 4.8 12.9 WNW | 293 0.00 13.7 0.00 49.9 52.0 12.9
6/20/24 - 0300 51.0 - 87 47.1 49.6 WNW | 290 4.5 11.2 WNW | 302 0.00 13.8 0.00 50.6 52.0 12.7
6/20/24 - 0200 51.5 - 86 47.3 49.9 W | 272 5.2 12.7 W | 270 0.00 13.8 0.00 51.1 52.0 12.7
6/20/24 - 0100 52.1 - 86 48.0 50.6 W | 268 6.7 14.9 WSW | 256 0.00 13.7 0.00 50.8 76.6 22.8
6/20/24 - 0000 52.3 - 86 48.3 50.8 W | 267 4.2 10.1 W | 277 0.00 13.7 0.00 50.8 76.6 22.8
6/19/24 - 2300 52.7 - 84 48.2 51.0 W | 277 5.9 14.7 WNW | 290 0.00 13.8 0.00 50.8 76.6 22.8
6/19/24 - 2200 53.3 - 82 47.8 51.0 W | 276 7.8 19.1 WNW | 294 0.00 13.6 0.00 50.8 76.6 22.8
6/19/24 - 2100 55.9 - 72 46.9 51.6 W | 274 9.0 22.8 WNW | 285 0.00 13.7 0.00 50.8 76.6 22.8
6/19/24 - 2000 62.6 - 52 44.7 53.0 WSW | 252 7.9 18.2 SW | 235 0.00 13.5 0.00 50.8 76.6 20.2
6/19/24 - 1900 68.3 - 34 39.1 52.4 W | 271 8.3 18.0 W | 278 0.00 13.5 0.00 50.8 76.6 20.2
6/19/24 - 1800 69.9 - 32 38.4 52.7 W | 259 10.0 19.5 W | 272 0.00 13.4 0.00 50.8 76.6 20.2
6/19/24 - 1700 73.0 - 26 36.6 53.0 W | 263 10.3 20.2 WSW | 239 0.00 13.5 0.00 50.8 76.6 20.2
6/19/24 - 1600 75.0 - 25 36.5 53.5 W | 270 9.2 20.2 W | 276 0.00 13.5 0.00 50.8 76.6 20.2
6/19/24 - 1500 74.8 - 26 37.7 53.9 W | 268 8.0 16.4 W | 263 0.00 13.5 0.00 50.8 76.5 19.5
6/19/24 - 1400 73.0 - 30 40.1 54.3 W | 273 7.9 19.5 W | 280 0.00 13.5 0.00 50.8 74.0 19.5
6/19/24 - 1300 71.0 - 36 43.0 54.9 W | 265 7.7 16.2 WNW | 286 0.00 13.6 0.00 50.8 72.2 16.2
6/19/24 - 1200 69.1 - 43 45.5 55.6 W | 265 6.0 14.5 WNW | 288 0.00 13.5 0.00 50.8 70.1 14.5
6/19/24 - 1100 65.7 - 49 45.9 54.7 WSW | 241 5.2 12.5 SW | 232 0.00 13.6 0.00 50.8 68.4 12.5
6/19/24 - 1000 61.6 - 55 45.3 52.9 WSW | 252 4.6 10.1 SW | 234 0.00 13.6 0.00 50.8 64.1 11.8
6/19/24 - 0900 57.5 - 66 46.3 51.9 WNW | 282 5.5 11.8 WNW | 284 0.00 13.6 0.00 50.8 59.5 11.8
6/19/24 - 0800 54.4 - 74 46.4 50.7 WNW | 294 4.3 11.8 WNW | 300 0.00 13.6 0.00 50.8 56.1 11.8
6/19/24 - 0700 51.6 - 80 45.8 49.1 NW | 320 3.9 9.6 NW | 323 0.00 13.6 0.00 50.8 54.3 11.8
6/19/24 - 0600 51.4 - 80 45.3 48.7 NW | 307 4.1 11.8 NW | 311 0.00 13.8 0.00 51.0 54.3 11.8
6/19/24 - 0500 52.4 - 74 44.4 48.7 NW | 306 4.9 11.2 NW | 310 0.00 13.8 0.00 51.6 54.3 11.2
6/19/24 - 0400 52.7 - 70 43.2 48.2 WNW | 297 3.3 9.9 W | 278 0.00 13.8 0.00 51.6 54.3 9.9
6/19/24 - 0300 52.3 - 68 42.0 47.5 WSW | 249 1.9 5.9 NNW | 336 0.00 13.7 0.00 51.6 54.3 5.9
6/19/24 - 0200 53.5 - 68 43.4 48.7 WSW | 243 1.7 5.5 NW | 311 0.00 13.7 0.00 52.8 54.3 5.5
6/19/24 - 0100 54.7 - 67 44.1 49.6 W | 269 2.7 9.0 NNW | 328 0.00 13.8 0.00 51.0 85.2 21.7
6/19/24 - 0000 56.5 - 61 43.3 50.0 NW | 319 2.3 7.0 NNW | 335 0.00 13.7 0.00 51.0 85.2 21.7
6/18/24 - 2300 58.7 - 57 43.7 51.0 NW | 309 3.1 8.8 NW | 307 0.00 13.6 0.00 51.0 85.2 21.7
6/18/24 - 2200 62.0 - 50 43.3 52.1 W | 268 3.4 7.7 WNW | 284 0.00 13.7 0.00 51.0 85.2 21.7
6/18/24 - 2100 65.7 - 46 44.2 53.8 WSW | 245 4.6 13.4 W | 270 0.00 13.5 0.00 51.0 85.2 21.7
6/18/24 - 2000 71.2 - 38 44.3 55.6 W | 260 7.2 17.5 WSW | 252 0.00 13.4 0.00 51.0 85.2 21.7
6/18/24 - 1900 75.5 - 29 40.6 55.2 W | 260 8.5 18.8 WNW | 292 0.00 13.5 0.00 51.0 85.2 21.7
6/18/24 - 1800 79.8 - 18 32.9 53.8 W | 268 8.6 18.2 W | 273 0.00 13.4 0.00 51.0 85.2 21.7
6/18/24 - 1700 81.1 - 19 34.9 54.7 W | 266 9.3 20.2 WSW | 258 0.00 13.4 0.00 51.0 85.2 21.7
6/18/24 - 1600 83.7 - 16 33.4 54.9 WSW | 254 8.8 21.7 WNW | 293 0.00 13.4 0.00 51.0 85.2 21.7
6/18/24 - 1500 83.8 - 17 34.3 55.2 W | 262 6.3 17.3 W | 272 0.00 13.4 0.00 51.0 85.2 17.3
6/18/24 - 1400 83.6 - 14 29.5 53.8 SW | 236 4.9 13.2 WSW | 258 0.00 13.3 0.00 51.0 85.2 13.2
6/18/24 - 1300 83.7 - 15 31.2 54.2 SW | 223 3.4 13.2 SW | 225 0.00 13.4 0.00 51.0 85.0 13.2
6/18/24 - 1200 80.7 - 18 33.1 54.0 SW | 219 3.6 9.0 WSW | 253 0.00 13.2 0.00 51.0 82.5 9.0
6/18/24 - 1100 77.3 - 21 34.6 53.6 SW | 222 3.6 8.1 SW | 225 0.00 13.5 0.00 51.0 78.8 8.1
6/18/24 - 1000 72.3 - 29 38.1 53.3 SSW | 205 2.7 6.4 S | 187 0.00 13.4 0.00 51.0 76.0 6.4
6/18/24 - 0900 66.8 - 34 37.8 51.4 SSW | 205 2.8 6.1 SSW | 213 0.00 13.6 0.00 51.0 68.4 6.1
6/18/24 - 0800 61.9 - 46 40.7 50.8 SE | 138 0.5 2.6 S | 183 0.00 13.7 0.00 51.0 65.1 4.4
6/18/24 - 0700 54.0 - 59 40.2 47.3 NE | 47 0.7 3.3 NE | 54 0.00 13.6 0.00 51.0 57.4 4.4
6/18/24 - 0600 51.9 - 62 39.2 46.0 NE | 42 1.3 4.2 NE | 41 0.00 13.7 0.00 51.0 56.8 4.4
6/18/24 - 0500 52.8 - 60 39.2 46.4 NE | 37 1.3 4.4 NE | 44 0.00 13.8 0.00 52.4 56.8 4.4
6/18/24 - 0400 53.3 - 59 39.3 46.6 NNE | 31 0.7 4.2 NE | 45 0.00 13.7 0.00 52.7 56.8 4.2
6/18/24 - 0300 54.1 - 57 39.1 46.9 N | 9 0.3 1.8 SW | 228 0.00 13.8 0.00 53.7 56.8 4.2
6/18/24 - 0200 55.8 - 52 38.5 47.4 NE | 46 1.4 4.2 NNE | 21 0.00 13.7 0.00 54.5 56.8 4.2
6/18/24 - 0100 57.4 - 46 37.1 47.5 NE | 51 1.4 4.6 NE | 46 0.00 13.8 0.00 51.1 83.5 23.2
6/18/24 - 0000 61.0 - 40 36.4 48.6 NE | 39 1.6 4.6 NE | 35 0.00 13.6 0.00 51.1 83.5 23.2
6/17/24 - 2300 64.2 - 37 37.5 50.3 NNE | 18 2.1 4.8 NE | 34 0.00 13.6 0.00 51.1 83.5 23.2
6/17/24 - 2200 68.5 - 34 39.1 52.5 NNW | 327 3.5 8.6 NNW | 333 0.00 13.6 0.00 51.1 83.5 23.2
6/17/24 - 2100 71.0 - 35 42.2 54.6 NW | 305 4.5 11.4 WNW | 295 0.00 13.5 0.00 51.1 83.5 23.2
6/17/24 - 2000 77.9 - 23 35.7 54.5 WNW | 286 5.9 13.4 WNW | 289 0.00 13.5 0.00 51.1 83.5 23.2
6/17/24 - 1900 81.3 - 10 18.7 50.8 N | 0 8.0 16.9 NNE | 24 0.00 13.4 0.00 51.1 83.5 23.2
6/17/24 - 1800 82.3 - 10 19.7 51.3 NNW | 327 8.3 17.8 NW | 323 0.00 13.3 0.00 51.1 83.5 23.2
6/17/24 - 1700 81.6 - 9 17.7 50.7 NW | 326 7.9 16.7 NNW | 330 0.00 13.3 0.00 51.1 83.0 23.2
6/17/24 - 1600 80.4 - 10 18.0 50.4 N | 0 6.7 18.2 N | 3 0.00 13.3 0.00 51.1 81.7 23.2
6/17/24 - 1500 78.6 - 11 20.0 50.2 NNW | 337 6.5 19.5 N | 6 0.00 13.5 0.00 51.1 80.3 23.2
6/17/24 - 1400 76.6 - 13 22.8 50.2 NNW | 340 8.2 18.8 NNW | 327 0.00 13.5 0.00 51.1 78.0 23.2
6/17/24 - 1300 74.4 - 15 24.0 49.7 NNE | 23 8.6 19.1 NNE | 12 0.00 13.4 0.00 51.1 76.0 23.2
6/17/24 - 1200 72.4 - 18 26.3 49.6 NNE | 23 9.8 21.9 N | 6 0.00 13.5 0.00 51.1 73.9 23.2
6/17/24 - 1100 70.6 - 20 27.7 49.4 NNE | 12 9.3 23.2 N | 7 0.00 13.4 0.00 51.1 72.1 23.2
6/17/24 - 1000 65.4 - 44 42.2 52.9 SW | 223 3.0 12.9 NNW | 343 0.00 13.4 0.00 51.1 69.4 12.9
6/17/24 - 0900 60.2 - 59 45.6 52.6 SSW | 210 2.3 6.6 S | 182 0.00 13.6 0.00 51.1 62.5 8.3
6/17/24 - 0800 55.8 - 73 47.3 51.8 WSW | 249 2.4 6.4 W | 272 0.00 13.7 0.00 51.1 59.1 8.3
6/17/24 - 0700 52.2 - 80 46.3 49.7 NW | 316 1.4 4.4 WNW | 293 0.00 13.8 0.00 51.1 59.1 8.3
6/17/24 - 0600 51.5 - 81 45.7 49.0 NW | 321 1.1 4.6 NW | 308 0.00 13.8 0.00 51.1 59.1 8.3
6/17/24 - 0500 52.8 - 78 46.2 49.9 W | 277 3.0 7.7 WSW | 253 0.00 13.8 0.00 51.7 59.1 8.3
6/17/24 - 0400 54.4 - 75 46.7 50.8 SW | 235 3.8 8.3 WSW | 248 0.00 13.8 0.00 53.6 59.1 8.3
6/17/24 - 0300 56.2 - 70 46.5 51.5 WSW | 242 3.3 8.3 S | 186 0.00 13.7 0.00 54.6 59.1 8.3
6/17/24 - 0200 58.6 - 63 46.1 52.2 SW | 216 3.9 7.7 SW | 224 0.00 13.7 0.00 57.8 59.1 7.7
6/17/24 - 0100 59.2 - 60 45.4 52.1 SSW | 212 3.6 7.5 SSW | 205 0.00 13.7 0.00 50.0 81.5 22.1
6/17/24 - 0000 61.3 - 52 43.7 52.0 SW | 217 5.3 11.0 SW | 225 0.00 13.7 0.00 50.0 81.5 22.1
6/16/24 - 2300 63.0 - 46 42.0 51.8 SW | 224 6.4 18.6 SW | 224 0.00 13.7 0.00 50.0 81.5 22.1
6/16/24 - 2200 63.2 - 46 42.3 52.0 SW | 228 6.5 15.3 SW | 233 0.00 13.6 0.00 50.0 81.5 22.1
6/16/24 - 2100 64.6 - 45 43.0 52.9 SW | 223 7.0 15.6 SW | 230 0.00 13.5 0.00 50.0 81.5 22.1
6/16/24 - 2000 70.6 - 35 41.6 54.2 WSW | 250 6.9 17.5 SW | 235 0.00 13.6 0.00 50.0 81.5 22.1
6/16/24 - 1900 73.7 - 31 41.0 54.9 WSW | 253 9.5 20.0 W | 267 0.00 13.5 0.00 50.0 81.5 22.1
6/16/24 - 1800 76.4 - 26 38.9 54.8 WSW | 246 9.4 20.8 W | 262 0.00 13.4 0.00 50.0 81.5 22.1
6/16/24 - 1700 77.0 - 24 37.5 54.4 WSW | 254 10.2 21.0 WNW | 285 0.00 13.3 0.00 50.0 81.5 22.1
6/16/24 - 1600 77.2 - 27 40.7 55.8 W | 262 10.4 22.1 W | 260 0.00 13.5 0.00 50.0 81.5 22.1
6/16/24 - 1500 80.1 - 20 34.9 54.4 WSW | 258 9.2 21.7 WSW | 251 0.00 13.4 0.00 50.0 81.5 21.7
6/16/24 - 1400 79.5 - 24 39.8 56.0 WSW | 255 7.2 17.1 WSW | 244 0.00 13.5 0.00 50.0 80.8 17.1
6/16/24 - 1300 77.7 - 30 43.9 57.2 WSW | 256 7.0 16.0 W | 273 0.00 13.3 0.00 50.0 78.6 16.0
6/16/24 - 1200 74.8 - 34 44.8 56.9 SSW | 212 4.8 12.5 WSW | 239 0.00 13.5 0.00 50.0 77.2 12.9
6/16/24 - 1100 70.2 - 41 45.7 56.0 SSW | 206 3.5 9.6 SW | 223 0.00 13.5 0.00 50.0 73.0 12.9
6/16/24 - 1000 65.3 - 48 44.9 54.0 SSW | 206 3.8 8.6 SW | 223 0.00 13.5 0.00 50.0 67.7 12.9
6/16/24 - 0900 61.1 - 57 45.8 53.0 SSW | 203 3.3 8.3 SW | 232 0.00 13.6 0.00 50.0 63.1 12.9
6/16/24 - 0800 57.2 - 66 46.0 51.6 SSW | 192 1.6 4.8 SW | 224 0.00 13.6 0.00 50.0 59.0 12.9
6/16/24 - 0700 51.8 - 78 45.2 48.9 WNW | 282 1.3 3.9 WNW | 285 0.00 13.8 0.00 50.0 55.3 12.9
6/16/24 - 0600 50.2 - 81 44.5 47.8 WNW | 296 0.7 2.4 WNW | 298 0.00 13.7 0.00 50.0 55.3 12.9
6/16/24 - 0500 51.4 - 78 44.8 48.5 WNW | 287 0.2 1.5 N | 350 0.00 13.9 0.00 50.5 55.3 12.9
6/16/24 - 0400 52.6 - 76 45.2 49.3 WNW | 292 1.6 7.0 NNW | 344 0.00 13.7 0.00 52.0 55.3 12.9
6/16/24 - 0300 53.8 - 74 45.7 50.1 WNW | 283 3.9 12.3 W | 279 0.00 13.8 0.00 53.4 55.3 12.9
6/16/24 - 0200 54.5 - 72 45.8 50.4 WSW | 257 2.1 12.9 W | 268 0.00 13.7 0.00 53.9 55.3 12.9
6/16/24 - 0100 54.6 - 72 45.9 50.5 WNW | 300 1.2 3.9 NNW | 339 0.00 13.6 0.00 50.2 82.8 22.1
6/16/24 - 0000 56.1 - 69 46.0 51.2 WNW | 300 1.0 4.6 WNW | 284 0.00 13.6 0.00 50.2 82.8 22.1
6/15/24 - 2300 58.1 - 62 45.0 51.5 W | 260 3.6 9.4 SW | 217 0.00 13.6 0.00 50.2 82.8 22.1
6/15/24 - 2200 59.7 - 59 45.4 52.3 WNW | 296 2.2 7.5 SW | 236 0.00 13.6 0.00 50.2 82.8 22.1
6/15/24 - 2100 65.1 - 49 45.5 54.2 SW | 228 2.0 5.0 NNE | 15 0.00 13.6 0.00 50.2 82.8 22.1
6/15/24 - 2000 69.5 - 41 44.6 55.2 W | 260 6.4 16.7 WNW | 303 0.00 13.6 0.00 50.2 82.8 22.1
6/15/24 - 1900 72.6 - 34 42.9 55.4 WSW | 254 8.8 19.3 SW | 235 0.00 13.4 0.00 50.2 82.8 22.1
6/15/24 - 1800 75.4 - 35 45.8 57.5 W | 259 10.1 22.1 WSW | 258 0.00 13.5 0.00 50.2 82.8 22.1
6/15/24 - 1700 79.7 - 31 46.7 58.9 WSW | 255 9.0 21.3 WSW | 256 0.00 13.3 0.00 50.2 82.8 21.3
6/15/24 - 1600 81.4 - 26 43.2 57.8 WSW | 254 7.0 16.4 WNW | 289 0.00 13.3 0.00 50.2 82.8 19.5
6/15/24 - 1500 80.2 - 27 43.5 57.6 WSW | 253 6.8 17.8 SW | 236 0.00 13.4 0.00 50.2 81.5 19.5
6/15/24 - 1400 78.5 - 29 43.1 57.1 WSW | 240 6.0 19.5 WSW | 242 0.00 13.4 0.00 50.2 80.5 19.5
6/15/24 - 1300 75.1 - 34 44.6 56.8 SW | 234 6.2 15.1 W | 260 0.00 13.4 0.00 50.2 76.7 15.1
6/15/24 - 1200 70.8 - 37 43.4 55.0 WSW | 245 5.6 13.4 SSW | 208 0.00 13.4 0.00 50.2 73.9 14.5
6/15/24 - 1100 67.1 - 41 42.7 53.6 SW | 235 4.9 12.1 WSW | 248 0.00 13.3 0.00 50.2 69.5 14.5
6/15/24 - 1000 62.1 - 53 44.5 52.7 SW | 219 4.4 9.6 SW | 225 0.00 13.6 0.00 50.2 64.8 14.5
6/15/24 - 0900 58.8 - 63 46.3 52.4 SW | 234 3.2 7.7 WSW | 239 0.00 13.5 0.00 50.2 60.9 14.5
6/15/24 - 0800 55.0 - 76 47.5 51.5 WNW | 284 3.3 9.4 W | 260 0.00 13.7 0.00 50.2 56.8 14.5
6/15/24 - 0700 51.4 - 84 46.8 49.6 NW | 304 3.0 7.9 W | 268 0.00 13.8 0.00 50.2 53.9 14.5
6/15/24 - 0600 51.5 - 84 46.8 49.6 W | 279 2.6 9.6 SW | 226 0.00 13.8 0.00 50.4 53.9 14.5
6/15/24 - 0500 52.6 - 82 47.3 50.4 WSW | 240 7.1 14.5 SW | 219 0.00 13.7 0.00 52.1 53.9 14.5
6/15/24 - 0400 53.2 - 81 47.4 50.7 SW | 236 6.1 11.6 WSW | 249 0.00 13.7 0.00 52.3 53.9 11.6
6/15/24 - 0300 53.0 - 81 47.5 50.7 WSW | 246 5.2 10.5 SW | 227 0.00 13.7 0.00 52.3 53.9 10.5
6/15/24 - 0200 53.3 - 79 47.0 50.5 WNW | 294 4.5 9.9 WNW | 296 0.00 13.8 0.00 52.8 53.9 9.9
6/15/24 - 0100 54.9 - 73 46.6 51.0 WNW | 288 4.4 11.4 WNW | 294 0.00 13.7 0.00 50.5 83.1 23.0
6/15/24 - 0000 57.0 - 68 46.5 51.8 WSW | 250 5.8 13.6 WSW | 244 0.00 13.6 0.00 50.5 83.1 23.0
6/14/24 - 2300 57.5 - 63 45.2 51.3 WSW | 250 4.8 12.1 WSW | 255 0.00 13.7 0.00 50.5 83.1 23.0
6/14/24 - 2200 58.6 - 61 45.1 51.7 W | 269 5.6 13.8 WNW | 284 0.00 13.7 0.00 50.5 83.1 23.0
6/14/24 - 2100 63.4 - 48 43.2 52.6 WSW | 245 6.7 16.7 SW | 233 0.00 13.5 0.00 50.5 83.1 23.0
6/14/24 - 2000 69.4 - 37 42.3 54.1 SW | 221 11.6 22.4 SW | 224 0.00 13.5 0.00 50.5 83.1 23.0
6/14/24 - 1900 73.9 - 31 41.5 55.1 WSW | 241 10.3 22.1 SW | 226 0.00 13.4 0.00 50.5 83.1 23.0
6/14/24 - 1800 78.9 - 20 34.7 54.0 WSW | 241 11.1 23.0 SW | 214 0.00 13.4 0.00 50.5 83.1 23.0
6/14/24 - 1700 80.9 - 18 33.4 54.1 WSW | 257 10.2 21.9 WSW | 250 0.00 13.3 0.00 50.5 83.1 21.9
6/14/24 - 1600 81.4 - 21 37.6 55.6 W | 262 9.1 18.2 WSW | 249 0.00 13.5 0.00 50.5 83.1 18.2
6/14/24 - 1500 80.3 - 21 36.8 55.1 W | 274 8.3 17.5 W | 264 0.00 13.4 0.00 50.5 81.5 17.5
6/14/24 - 1400 78.9 - 26 40.7 56.2 W | 266 7.0 14.7 WSW | 245 0.00 13.3 0.00 50.5 80.8 14.7
6/14/24 - 1300 76.3 - 28 40.8 55.5 W | 260 6.8 14.7 SW | 229 0.00 13.4 0.00 50.5 77.6 14.7
6/14/24 - 1200 72.6 - 38 45.0 56.4 W | 260 6.9 14.5 WSW | 257 0.00 13.4 0.00 50.5 74.6 14.5
6/14/24 - 1100 68.2 - 49 48.3 56.7 W | 260 6.5 14.0 SW | 221 0.00 13.4 0.00 50.5 70.3 14.0
6/14/24 - 1000 63.4 - 58 48.4 55.2 W | 261 5.0 10.7 W | 281 0.00 13.6 0.00 50.5 66.1 12.9
6/14/24 - 0900 59.0 - 68 48.7 53.8 W | 275 4.9 10.1 W | 266 0.00 13.7 0.00 50.5 60.8 12.9
6/14/24 - 0800 55.6 - 79 49.1 52.8 WSW | 256 4.5 10.7 WSW | 253 0.00 13.7 0.00 50.5 57.3 12.9
6/14/24 - 0700 52.7 - 87 49.1 51.5 W | 268 3.0 8.1 W | 276 0.00 13.7 0.00 50.5 54.0 12.9
6/14/24 - 0600 51.5 - 89 48.3 50.5 W | 266 2.7 8.8 WNW | 290 0.00 13.9 0.00 50.5 51.8 12.9
6/14/24 - 0500 51.2 - 89 48.0 50.2 WNW | 295 4.4 10.7 NW | 305 0.00 13.8 0.00 50.5 51.8 12.9
6/14/24 - 0400 51.1 - 88 47.8 50.0 WNW | 293 3.9 10.5 WNW | 284 0.00 13.8 0.00 50.5 51.8 12.9
6/14/24 - 0300 51.4 - 87 47.8 50.2 NW | 313 5.0 11.6 NW | 307 0.00 13.8 0.00 51.3 51.8 12.9
6/14/24 - 0200 51.6 - 86 47.7 50.2 WNW | 302 4.7 12.9 WNW | 294 0.00 13.7 0.00 51.4 51.8 12.9
6/14/24 - 0100 51.9 - 85 47.6 50.3 WNW | 299 6.6 16.0 W | 275 0.00 13.7 0.00 51.8 74.9 25.6
6/14/24 - 0000 52.3 - 83 47.3 50.3 WNW | 290 6.6 18.8 W | 281 0.00 13.8 0.00 52.0 74.9 25.6
6/13/24 - 2300 52.7 - 81 47.1 50.4 WNW | 296 8.0 20.0 WNW | 282 0.00 13.7 0.00 52.5 74.9 25.6
6/13/24 - 2200 53.6 - 78 46.9 50.6 WNW | 296 7.9 20.0 NNW | 337 0.00 13.6 0.00 53.1 74.9 25.6
6/13/24 - 2100 55.2 - 73 46.9 51.3 NW | 308 9.6 22.6 NW | 322 0.00 13.6 0.00 54.0 74.9 25.6
6/13/24 - 2000 59.9 - 63 47.5 53.5 WNW | 297 9.6 24.1 NW | 322 0.00 13.6 0.00 54.4 74.9 25.6
6/13/24 - 1900 64.8 - 54 47.9 55.4 WNW | 286 11.5 25.6 W | 280 0.00 13.4 0.00 54.4 74.9 25.6
6/13/24 - 1800 68.4 - 48 48.2 56.7 WNW | 289 10.1 22.8 W | 278 0.00 13.5 0.00 54.4 74.9 22.8
6/13/24 - 1700 70.2 - 47 48.8 57.6 WNW | 289 11.5 22.1 WNW | 296 0.00 13.6 0.00 54.4 74.9 22.6
6/13/24 - 1600 72.0 - 45 49.7 58.6 W | 279 10.1 22.6 WNW | 291 0.00 13.4 0.00 54.4 74.9 22.6
6/13/24 - 1500 73.0 - 45 50.3 59.2 WNW | 282 9.7 21.7 W | 276 0.00 13.4 0.00 54.4 74.9 21.7
6/13/24 - 1400 72.4 - 46 50.3 59.0 WNW | 282 10.2 21.3 WNW | 297 0.00 12.7 0.00 54.4 73.9 21.3
6/13/24 - 1300 71.5 - 47 50.2 58.7 WNW | 282 8.8 18.8 NW | 304 0.00 12.8 0.00 54.4 72.7 18.8
6/13/24 - 1200 69.7 - 51 50.9 58.6 W | 273 6.6 15.3 NW | 320 0.00 13.4 0.00 54.4 71.3 15.3
6/13/24 - 1100 67.2 - 58 52.1 58.6 W | 271 4.9 12.3 W | 275 0.00 13.4 0.00 54.4 68.8 13.8
6/13/24 - 1000 64.2 - 65 52.3 57.8 W | 269 4.7 10.7 W | 270 0.00 13.4 0.00 54.4 65.7 13.8
6/13/24 - 0900 61.4 - 71 52.0 56.7 W | 274 4.8 10.5 W | 278 0.00 13.6 0.00 54.4 63.3 13.8
6/13/24 - 0800 58.0 - 79 51.4 55.1 NW | 310 4.6 12.7 NW | 310 0.00 13.7 0.00 54.4 60.1 13.8
6/13/24 - 0700 55.5 - 84 50.8 53.7 NW | 315 3.3 10.5 WNW | 292 0.00 13.6 0.00 54.4 57.9 13.8
6/13/24 - 0600 54.7 - 86 50.6 53.2 NW | 308 4.2 10.5 WNW | 300 0.00 13.7 0.00 54.4 57.9 13.8
6/13/24 - 0500 54.7 - 87 50.9 53.5 NW | 310 4.5 13.8 NW | 322 0.00 13.7 0.00 54.5 57.9 13.8
6/13/24 - 0400 55.6 - 84 50.9 53.8 NW | 317 6.7 13.8 NNW | 330 0.00 13.7 0.00 55.0 57.9 13.8
6/13/24 - 0300 56.2 - 82 50.8 54.0 NW | 309 6.0 13.4 WNW | 300 0.00 13.6 0.00 55.7 57.9 13.4
6/13/24 - 0200 57.4 - 79 50.9 54.5 WNW | 299 4.9 12.9 NW | 320 0.00 13.6 0.00 56.6 57.9 12.9
6/13/24 - 0100 58.4 - 76 50.9 54.9 NW | 312 4.4 10.3 WNW | 301 0.00 13.8 0.00 57.9 83.6 23.2
6/13/24 - 0000 59.3 - 74 50.9 55.2 WNW | 300 6.1 12.7 WNW | 291 0.00 13.7 0.00 58.8 83.6 23.2
6/12/24 - 2300 60.2 - 72 51.0 55.6 NW | 307 6.8 13.6 NW | 325 0.00 13.6 0.00 59.8 83.6 23.2
6/12/24 - 2200 61.7 - 66 50.4 55.8 NW | 309 7.2 14.7 NW | 309 0.00 13.7 0.00 60.7 83.6 23.2
6/12/24 - 2100 65.3 - 58 50.3 57.0 WNW | 298 7.5 17.1 W | 275 0.00 13.5 0.00 62.0 83.6 23.2
6/12/24 - 2000 71.0 - 50 51.6 59.4 WNW | 282 7.9 18.2 W | 280 0.00 13.5 0.00 62.0 83.6 23.2
6/12/24 - 1900 73.2 - 48 52.2 60.3 W | 277 10.4 23.2 W | 268 0.00 13.6 0.00 62.0 83.6 23.2
6/12/24 - 1800 75.0 - 45 52.3 60.8 W | 278 11.4 22.6 WNW | 284 0.00 13.5 0.00 62.0 83.6 22.6
6/12/24 - 1700 78.7 - 41 53.1 62.0 W | 274 9.2 20.4 WNW | 289 0.00 13.3 0.00 62.0 83.6 20.6
6/12/24 - 1600 80.0 - 41 54.0 62.8 W | 280 9.9 20.6 W | 281 0.00 13.4 0.00 62.0 83.6 20.6
6/12/24 - 1500 82.0 - 39 54.5 63.5 W | 263 8.2 17.8 W | 278 0.00 13.4 0.00 62.0 83.6 18.2
6/12/24 - 1400 81.7 - 38 53.7 63.0 SW | 231 7.1 18.2 S | 188 0.00 13.2 0.00 62.0 82.6 18.2
6/12/24 - 1300 80.3 - 39 53.2 62.4 SSW | 213 6.0 15.1 S | 187 0.00 13.4 0.00 62.0 81.9 15.1
6/12/24 - 1200 76.9 - 44 53.5 61.9 WSW | 242 5.3 12.5 SW | 215 0.00 13.4 0.00 62.0 78.4 12.5
6/12/24 - 1100 74.1 - 49 53.7 61.4 SSW | 213 4.7 10.1 SW | 232 0.00 13.3 0.00 62.0 76.1 10.7
6/12/24 - 1000 70.8 - 54 53.2 60.3 SW | 217 4.5 9.9 WSW | 242 0.00 13.4 0.00 62.0 72.6 10.7
6/12/24 - 0900 68.1 - 58 52.7 59.2 SW | 234 4.5 9.9 SW | 218 0.00 13.4 0.00 62.0 72.5 10.7
6/12/24 - 0800 65.4 - 62 52.2 58.1 SW | 227 4.6 8.3 SW | 223 0.00 13.6 0.00 62.0 72.5 10.7
6/12/24 - 0700 63.8 - 65 51.6 57.3 W | 262 1.8 7.5 WNW | 297 0.00 13.6 0.00 62.0 72.5 10.7
6/12/24 - 0600 63.5 - 64 51.3 57.0 W | 266 2.3 4.6 W | 277 0.00 13.6 0.00 62.0 72.5 10.7
6/12/24 - 0500 65.7 - 60 51.4 57.8 W | 277 3.4 10.7 WNW | 288 0.00 13.5 0.00 64.5 72.5 10.7
6/12/24 - 0400 67.7 - 56 51.6 58.4 W | 259 2.3 6.8 WSW | 250 0.00 13.5 0.00 66.8 72.5 6.8
6/12/24 - 0300 68.7 - 53 51.0 58.4 WSW | 256 2.0 6.1 NW | 321 0.00 13.5 0.00 67.7 72.5 6.1
6/12/24 - 0200 70.8 - 48 50.2 58.5 WSW | 258 1.5 4.6 WSW | 243 0.00 13.5 0.00 69.1 72.5 4.6
6/12/24 - 0100 72.4 - 46 50.4 59.1 WSW | 258 1.3 6.1 NNW | 334 0.00 13.4 0.00 56.2 99.6 18.0
6/12/24 - 0000 75.4 - 40 49.6 59.4 W | 263 3.4 8.1 WSW | 255 0.00 13.6 0.00 56.2 99.6 18.0
6/11/24 - 2300 76.4 - 43 52.1 61.0 W | 275 3.0 6.6 WNW | 294 0.00 13.6 0.00 56.2 99.6 18.0
6/11/24 - 2200 79.3 - 40 53.2 62.2 WNW | 286 1.1 4.2 W | 273 0.00 13.4 0.00 56.2 99.6 18.0
6/11/24 - 2100 82.7 - 37 54.0 63.3 WNW | 282 3.6 10.1 WNW | 290 0.00 13.3 0.00 56.2 99.6 18.0
6/11/24 - 2000 87.9 - 32 54.3 64.3 WNW | 282 7.0 14.7 WNW | 283 0.00 13.2 0.00 56.2 99.6 18.0
6/11/24 - 1900 91.6 - 30 55.4 65.3 WSW | 256 6.9 18.0 WSW | 254 0.00 13.3 0.00 56.2 99.6 18.0
6/11/24 - 1800 94.2 - 27 55.5 65.6 W | 261 7.5 15.6 WSW | 248 0.00 13.2 0.00 56.2 99.6 15.6
6/11/24 - 1700 95.4 - 27 55.9 66.0 W | 269 8.3 15.6 W | 276 0.00 13.2 0.00 56.2 99.6 15.6
6/11/24 - 1600 97.7 - 25 56.2 66.3 W | 263 5.0 13.8 WNW | 288 0.00 13.2 0.00 56.2 99.6 13.8
6/11/24 - 1500 97.5 - 24 54.7 65.5 SW | 215 3.7 11.2 SW | 219 0.00 13.1 0.00 56.2 99.0 11.2
6/11/24 - 1400 94.7 - 26 54.7 65.3 SW | 228 3.4 9.6 SSW | 208 0.00 13.3 0.00 56.2 96.9 10.3
6/11/24 - 1300 91.2 - 29 54.6 64.8 WSW | 240 3.4 10.3 SW | 232 0.00 13.3 0.00 56.2 93.4 10.3
6/11/24 - 1200 86.0 - 33 53.4 63.5 SW | 221 3.8 8.1 WSW | 243 0.00 13.3 0.00 56.2 88.2 8.1
6/11/24 - 1100 80.1 - 42 54.6 63.2 SSW | 211 3.4 7.0 SW | 233 0.00 13.4 0.00 56.2 83.4 7.0
6/11/24 - 1000 75.2 - 47 53.9 61.8 S | 185 1.5 5.0 SSW | 200 0.00 13.4 0.00 56.2 77.7 5.0
6/11/24 - 0900 69.1 - 56 52.6 59.4 S | 191 0.8 3.1 SSW | 208 0.00 13.4 0.00 56.2 72.1 4.8
6/11/24 - 0800 64.0 - 65 52.0 57.6 S | 169 0.4 2.4 SSW | 206 0.00 13.5 0.00 56.2 65.9 4.8
6/11/24 - 0700 57.8 - 79 51.5 55.1 NNE | 22 0.6 2.4 NE | 40 0.00 13.7 0.00 56.2 61.7 4.8
6/11/24 - 0600 56.8 - 80 50.7 54.2 NNE | 27 0.6 3.1 NNE | 26 0.00 13.8 0.00 56.2 61.7 4.8
6/11/24 - 0500 57.7 - 78 51.1 54.8 W | 278 1.5 4.6 W | 280 0.00 13.8 0.00 57.0 61.7 4.8
6/11/24 - 0400 58.7 - 75 50.7 54.9 W | 279 1.4 4.4 WNW | 292 0.00 13.6 0.00 57.8 61.7 4.8
6/11/24 - 0300 60.1 - 70 50.4 55.2 WSW | 252 1.6 4.8 SW | 216 0.00 13.6 0.00 59.6 61.7 4.8
6/11/24 - 0200 61.1 - 68 50.4 55.6 WSW | 258 1.4 3.7 W | 259 0.00 13.7 0.00 60.3 61.7 3.7
6/11/24 - 0100 62.8 - 63 50.0 56.0 W | 278 2.4 6.6 WSW | 248 0.00 13.6 0.00 52.7 89.0 20.6
6/11/24 - 0000 65.8 - 56 49.5 56.6 W | 275 1.8 5.0 WSW | 254 0.00 13.5 0.00 52.7 89.0 20.6
6/10/24 - 2300 67.3 - 52 49.1 56.9 WSW | 258 1.9 7.0 NW | 323 0.00 13.5 0.00 52.7 89.0 20.6
6/10/24 - 2200 69.0 - 51 50.3 58.1 NW | 306 2.7 9.0 NNW | 328 0.00 13.5 0.00 52.7 89.0 20.6
6/10/24 - 2100 72.9 - 46 50.8 59.4 W | 261 4.4 14.5 WNW | 291 0.00 13.5 0.00 52.7 89.0 20.6
6/10/24 - 2000 77.3 - 42 52.4 61.4 W | 274 7.8 18.8 W | 269 0.00 13.5 0.00 52.7 89.0 20.6
6/10/24 - 1900 80.8 - 38 53.1 62.5 WSW | 255 8.3 19.3 SW | 232 0.00 13.3 0.00 52.7 89.0 20.6
6/10/24 - 1800 83.0 - 37 53.7 63.2 W | 260 9.5 18.6 SW | 236 0.00 13.3 0.00 52.7 89.0 20.6
6/10/24 - 1700 85.2 - 35 54.8 64.2 W | 268 9.6 20.6 W | 274 0.00 13.4 0.00 52.7 89.0 20.6
6/10/24 - 1600 87.0 - 34 55.6 64.9 W | 265 7.7 15.6 WSW | 254 0.00 13.4 0.00 52.7 89.0 15.6
6/10/24 - 1500 87.5 - 34 55.3 64.8 WSW | 250 6.1 13.8 WSW | 245 0.00 13.2 0.00 52.7 88.7 13.8
6/10/24 - 1400 86.5 - 34 54.7 64.3 WSW | 244 4.6 13.8 SSW | 208 0.00 13.3 0.00 52.7 87.5 13.8
6/10/24 - 1300 82.4 - 37 53.8 63.2 SW | 215 4.5 10.5 SW | 224 0.00 13.2 0.00 52.7 85.6 12.7
6/10/24 - 1200 76.2 - 43 52.3 61.0 SSW | 204 4.0 8.8 SSW | 196 0.00 13.4 0.00 52.7 79.1 12.7
6/10/24 - 1100 70.3 - 51 51.4 59.1 SW | 229 3.4 9.0 SSW | 197 0.00 13.4 0.00 52.7 73.8 12.7
6/10/24 - 1000 63.9 - 63 51.1 57.0 SSW | 200 3.7 8.8 S | 185 0.00 13.6 0.00 52.7 66.7 12.7
6/10/24 - 0900 59.6 - 73 50.9 55.4 SW | 220 2.5 6.8 WSW | 242 0.00 13.5 0.00 52.7 61.5 12.7
6/10/24 - 0800 56.0 - 82 50.6 53.8 SSW | 206 2.8 6.1 SW | 220 0.00 13.6 0.00 52.7 57.6 12.7
6/10/24 - 0700 53.7 - 88 50.4 52.8 WNW | 286 2.6 6.8 WSW | 240 0.00 13.7 0.00 52.7 54.6 12.7
6/10/24 - 0600 52.8 - 90 50.1 52.2 NW | 318 4.3 10.3 NNW | 339 0.00 13.7 0.00 52.7 53.4 12.7
6/10/24 - 0500 52.8 - 90 50.1 52.1 NW | 308 4.6 11.6 NW | 309 0.00 13.7 0.00 52.7 53.4 12.7
6/10/24 - 0400 52.8 - 90 50.0 52.1 WNW | 291 4.1 10.1 WNW | 295 0.00 13.8 0.00 52.7 53.4 12.7
6/10/24 - 0300 53.2 - 89 50.0 52.3 WNW | 290 4.7 12.7 NW | 309 0.00 13.6 0.00 52.9 53.4 12.7
6/10/24 - 0200 53.3 - 88 49.9 52.2 WNW | 290 3.9 11.6 WNW | 301 0.00 13.7 0.00 53.2 53.4 11.6
6/10/24 - 0100 53.6 - 87 49.9 52.3 WNW | 291 4.4 14.2 NW | 306 0.00 13.7 0.00 53.2 76.3 22.4
6/10/24 - 0000 53.9 - 86 49.9 52.5 WNW | 297 4.3 12.1 NW | 321 0.00 13.7 0.00 53.2 76.3 22.4
6/9/24 - 2300 54.3 - 84 49.8 52.6 WNW | 298 5.4 14.2 NW | 307 0.00 13.7 0.00 53.2 76.3 22.4
6/9/24 - 2200 55.1 - 82 49.7 52.9 WNW | 292 5.8 15.8 W | 275 0.00 13.7 0.00 53.2 76.3 22.4
6/9/24 - 2100 57.4 - 73 49.0 53.4 WNW | 284 7.6 19.3 NNW | 331 0.00 13.6 0.00 53.2 76.3 22.4
6/9/24 - 2000 61.5 - 62 48.2 54.5 WNW | 293 6.5 18.2 W | 278 0.00 13.6 0.00 53.2 76.3 22.4
6/9/24 - 1900 65.5 - 54 48.6 56.1 W | 276 8.2 19.5 WNW | 283 0.00 13.6 0.00 53.2 76.3 22.4
6/9/24 - 1800 68.8 - 47 47.4 56.4 W | 271 9.1 20.4 W | 279 0.00 13.4 0.00 53.2 76.3 22.4
6/9/24 - 1700 71.8 - 41 46.6 56.9 W | 279 9.4 20.8 W | 271 0.00 13.4 0.00 53.2 76.3 22.4
6/9/24 - 1600 73.4 - 39 47.3 57.7 W | 271 10.3 22.4 W | 279 0.00 13.5 0.00 53.2 76.3 22.4
6/9/24 - 1500 75.3 - 37 47.2 58.2 W | 275 9.8 20.8 WNW | 288 0.00 13.4 0.00 53.2 76.3 20.8
6/9/24 - 1400 75.4 - 36 46.8 58.0 W | 271 8.0 18.0 W | 273 0.00 13.4 0.00 53.2 76.3 18.0
6/9/24 - 1300 73.9 - 39 47.2 57.8 W | 266 6.9 16.9 W | 271 0.00 13.5 0.00 53.2 75.1 16.9
6/9/24 - 1200 70.9 - 44 47.8 57.2 WSW | 248 5.6 13.4 W | 262 0.00 13.4 0.00 53.2 73.2 16.4
6/9/24 - 1100 66.7 - 53 49.3 56.8 SW | 225 5.3 12.9 SW | 223 0.00 13.4 0.00 53.2 69.3 16.4
6/9/24 - 1000 62.0 - 64 49.7 55.5 WSW | 250 5.7 12.9 WNW | 287 0.00 13.5 0.00 53.2 64.2 16.4
6/9/24 - 0900 58.8 - 72 49.8 54.4 WNW | 286 6.5 15.6 NW | 306 0.00 13.6 0.00 53.2 60.2 16.4
6/9/24 - 0800 57.1 - 76 49.7 53.7 WNW | 298 5.8 12.9 W | 273 0.00 13.6 0.00 53.2 57.8 16.4
6/9/24 - 0700 55.7 - 79 49.5 53.0 WNW | 295 5.5 13.6 WNW | 300 0.00 13.7 0.00 53.2 56.4 16.4
6/9/24 - 0600 54.1 - 82 48.9 52.0 WNW | 298 5.1 10.5 WNW | 285 0.00 13.7 0.00 53.2 54.7 16.4
6/9/24 - 0500 53.5 - 84 48.8 51.7 WNW | 294 4.7 9.6 WNW | 289 0.00 13.6 0.00 53.2 54.6 16.4
6/9/24 - 0400 54.2 - 80 48.2 51.6 W | 281 5.6 12.5 W | 276 0.00 13.6 0.00 53.9 54.6 16.4
6/9/24 - 0300 54.1 - 82 48.8 52.0 W | 278 6.8 15.3 W | 275 0.00 13.6 0.00 53.9 54.6 16.4
6/9/24 - 0200 54.4 - 81 48.8 52.1 W | 275 7.2 16.4 WNW | 294 0.00 13.8 0.00 54.2 54.6 16.4
6/9/24 - 0100 55.0 - 79 48.6 52.2 W | 280 7.9 18.4 WNW | 282 0.00 13.6 0.00 54.1 72.9 24.6
6/9/24 - 0000 56.0 - 74 47.9 52.2 WNW | 284 8.9 19.3 WNW | 294 0.00 13.6 0.00 54.1 72.9 24.6
6/8/24 - 2300 56.7 - 71 47.3 52.2 WNW | 282 7.7 16.9 W | 271 0.00 13.7 0.00 54.1 72.9 24.6
6/8/24 - 2200 57.9 - 65 46.3 52.1 WNW | 286 6.9 15.3 WNW | 295 0.00 13.6 0.00 54.1 72.9 24.6
6/8/24 - 2100 60.9 - 57 45.4 52.7 W | 266 6.3 12.7 W | 272 0.00 13.6 0.00 54.1 72.9 24.6
6/8/24 - 2000 65.1 - 48